sensor_id;sensor_type;location;lat;lon;timestamp;temperature;humidity
8463;DHT22;4268;52.506;13.462;2023-04-02T00:08:55;4.70;99.90
8463;DHT22;4268;52.506;13.462;2023-04-02T00:11:31;4.60;99.90
8463;DHT22;4268;52.506;13.462;2023-04-02T00:14:00;4.60;99.90
8463;DHT22;4268;52.506;13.462;2023-04-02T00:16:27;4.60;99.90
8463;DHT22;4268;52.506;13.462;2023-04-02T00:18:57;4.60;99.90
8463;DHT22;4268;52.506;13.462;2023-04-02T00:21:27;4.60;99.90
8463;DHT22;4268;52.506;13.462;2023-04-02T00:23:55;4.50;99.90
8463;DHT22;4268;52.506;13.462;2023-04-02T00:26:38;4.50;99.90
8463;DHT22;4268;52.506;13.462;2023-04-02T00:29:09;4.40;99.90
8463;DHT22;4268;52.506;13.462;2023-04-02T00:31:38;4.30;99.90
8463;DHT22;4268;52.506;13.462;2023-04-02T00:34:07;4.30;99.90
8463;DHT22;4268;52.506;13.462;2023-04-02T00:36:34;4.30;99.90
8463;DHT22;4268;52.506;13.462;2023-04-02T00:39:02;4.40;99.90
8463;DHT22;4268;52.506;13.462;2023-04-02T00:41:30;4.30;99.90
8463;DHT22;4268;52.506;13.462;2023-04-02T00:43:57;4.30;99.90
8463;DHT22;4268;52.506;13.462;2023-04-02T00:46:38;4.30;99.90
8463;DHT22;4268;52.506;13.462;2023-04-02T00:51:53;4.30;99.90
8463;DHT22;4268;52.506;13.462;2023-04-02T00:54:22;4.20;99.90
8463;DHT22;4268;52.506;13.462;2023-04-02T00:56:56;4.20;99.90
8463;DHT22;4268;52.506;13.462;2023-04-02T00:59:47;4.20;99.90
8463;DHT22;4268;52.506;13.462;2023-04-02T01:05:00;4.20;99.90
8463;DHT22;4268;52.506;13.462;2023-04-02T01:07:55;4.20;99.90
8463;DHT22;4268;52.506;13.462;2023-04-02T01:10:46;4.20;99.90
8463;DHT22;4268;52.506;13.462;2023-04-02T01:21:56;4.10;99.90
8463;DHT22;4268;52.506;13.462;2023-04-02T01:24:23;4.10;99.90
8463;DHT22;4268;52.506;13.462;2023-04-02T01:26:58;4.00;99.90
8463;DHT22;4268;52.506;13.462;2023-04-02T01:29:37;4.00;99.90
8463;DHT22;4268;52.506;13.462;2023-04-02T01:32:07;4.00;99.90
8463;DHT22;4268;52.506;13.462;2023-04-02T01:34:35;4.10;99.90
8463;DHT22;4268;52.506;13.462;2023-04-02T01:37:31;4.10;99.90
8463;DHT22;4268;52.506;13.462;2023-04-02T01:43:50;4.10;99.90
8463;DHT22;4268;52.506;13.462;2023-04-02T01:46:32;4.10;99.90
8463;DHT22;4268;52.506;13.462;2023-04-02T01:49:24;4.00;99.90
8463;DHT22;4268;52.506;13.462;2023-04-02T01:51:53;4.00;99.90
8463;DHT22;4268;52.506;13.462;2023-04-02T01:54:21;4.10;99.90
8463;DHT22;4268;52.506;13.462;2023-04-02T01:56:47;4.00;99.90
8463;DHT22;4268;52.506;13.462;2023-04-02T01:59:19;4.10;99.90
8463;DHT22;4268;52.506;13.462;2023-04-02T02:04:24;4.00;99.90
8463;DHT22;4268;52.506;13.462;2023-04-02T02:06:50;4.00;99.90
8463;DHT22;4268;52.506;13.462;2023-04-02T02:09:27;4.00;99.90
8463;DHT22;4268;52.506;13.462;2023-04-02T02:11:56;4.00;99.90
8463;DHT22;4268;52.506;13.462;2023-04-02T02:14:23;3.90;99.90
8463;DHT22;4268;52.506;13.462;2023-04-02T02:16:49;4.00;99.90
8463;DHT22;4268;52.506;13.462;2023-04-02T02:24:45;4.10;99.90
8463;DHT22;4268;52.506;13.462;2023-04-02T02:29:50;4.10;99.90
8463;DHT22;4268;52.506;13.462;2023-04-02T02:32:17;4.10;99.90
8463;DHT22;4268;52.506;13.462;2023-04-02T02:34:48;4.00;99.90
8463;DHT22;4268;52.506;13.462;2023-04-02T02:37:23;4.10;99.90
8463;DHT22;4268;52.506;13.462;2023-04-02T02:39:54;4.00;99.90
8463;DHT22;4268;52.506;13.462;2023-04-02T02:42:31;4.00;99.90
8463;DHT22;4268;52.506;13.462;2023-04-02T02:45:00;4.10;99.90
8463;DHT22;4268;52.506;13.462;2023-04-02T02:47:30;4.10;99.90
8463;DHT22;4268;52.506;13.462;2023-04-02T02:50:01;4.10;99.90
8463;DHT22;4268;52.506;13.462;2023-04-02T02:52:30;4.10;99.90
8463;DHT22;4268;52.506;13.462;2023-04-02T02:55:00;4.10;99.90
8463;DHT22;4268;52.506;13.462;2023-04-02T02:57:30;4.10;99.90
8463;DHT22;4268;52.506;13.462;2023-04-02T02:59:58;4.10;99.90
8463;DHT22;4268;52.506;13.462;2023-04-02T03:02:26;4.10;99.90
8463;DHT22;4268;52.506;13.462;2023-04-02T03:04:54;4.10;99.90
8463;DHT22;4268;52.506;13.462;2023-04-02T03:07:22;4.10;99.90
8463;DHT22;4268;52.506;13.462;2023-04-02T03:15:54;4.10;99.90
8463;DHT22;4268;52.506;13.462;2023-04-02T03:18:37;4.10;99.90
8463;DHT22;4268;52.506;13.462;2023-04-02T03:21:15;4.10;99.90
8463;DHT22;4268;52.506;13.462;2023-04-02T03:23:45;4.10;99.90
8463;DHT22;4268;52.506;13.462;2023-04-02T03:26:43;2.70;99.90
8463;DHT22;4268;52.506;13.462;2023-04-02T03:29:17;4.00;99.90
8463;DHT22;4268;52.506;13.462;2023-04-02T03:31:49;3.90;99.90
8463;DHT22;4268;52.506;13.462;2023-04-02T03:34:23;3.80;99.90
8463;DHT22;4268;52.506;13.462;2023-04-02T03:37:04;3.80;99.90
8463;DHT22;4268;52.506;13.462;2023-04-02T03:39:50;3.80;99.90
8463;DHT22;4268;52.506;13.462;2023-04-02T03:42:22;3.70;99.90
8463;DHT22;4268;52.506;13.462;2023-04-02T03:44:59;3.80;99.90
8463;DHT22;4268;52.506;13.462;2023-04-02T03:47:46;3.90;99.90
8463;DHT22;4268;52.506;13.462;2023-04-02T03:52:48;3.90;99.90
8463;DHT22;4268;52.506;13.462;2023-04-02T03:55:18;3.90;99.90
8463;DHT22;4268;52.506;13.462;2023-04-02T04:03:38;3.90;99.90
8463;DHT22;4268;52.506;13.462;2023-04-02T04:06:09;3.90;99.90
8463;DHT22;4268;52.506;13.462;2023-04-02T04:08:45;3.80;99.90
8463;DHT22;4268;52.506;13.462;2023-04-02T04:11:18;3.80;99.90
8463;DHT22;4268;52.506;13.462;2023-04-02T04:13:49;5.00;99.90
8463;DHT22;4268;52.506;13.462;2023-04-02T04:16:50;3.90;99.90
8463;DHT22;4268;52.506;13.462;2023-04-02T04:19:28;3.90;99.90
8463;DHT22;4268;52.506;13.462;2023-04-02T04:22:17;4.00;99.90
8463;DHT22;4268;52.506;13.462;2023-04-02T04:24:44;3.60;99.90
8463;DHT22;4268;52.506;13.462;2023-04-02T04:27:27;4.10;99.90
8463;DHT22;4268;52.506;13.462;2023-04-02T04:30:48;4.10;99.90
8463;DHT22;4268;52.506;13.462;2023-04-02T04:32:58;4.00;99.90
8463;DHT22;4268;52.506;13.462;2023-04-02T04:35:47;4.00;99.90
8463;DHT22;4268;52.506;13.462;2023-04-02T04:38:36;3.90;99.90
8463;DHT22;4268;52.506;13.462;2023-04-02T04:41:17;3.90;99.90
8463;DHT22;4268;52.506;13.462;2023-04-02T04:43:51;3.80;99.90
8463;DHT22;4268;52.506;13.462;2023-04-02T04:46:40;3.90;99.90
8463;DHT22;4268;52.506;13.462;2023-04-02T04:49:19;4.00;99.90
8463;DHT22;4268;52.506;13.462;2023-04-02T04:51:51;4.00;99.90
8463;DHT22;4268;52.506;13.462;2023-04-02T04:54:19;4.40;99.90
8463;DHT22;4268;52.506;13.462;2023-04-02T04:56:50;4.00;99.90
8463;DHT22;4268;52.506;13.462;2023-04-02T04:59:32;3.90;99.90
8463;DHT22;4268;52.506;13.462;2023-04-02T05:02:20;4.10;99.90
8463;DHT22;4268;52.506;13.462;2023-04-02T05:04:50;4.50;99.90
8463;DHT22;4268;52.506;13.462;2023-04-02T05:07:34;4.00;99.90
8463;DHT22;4268;52.506;13.462;2023-04-02T05:10:15;4.10;99.90
8463;DHT22;4268;52.506;13.462;2023-04-02T05:13:00;4.10;99.90
8463;DHT22;4268;52.506;13.462;2023-04-02T05:15:54;4.20;99.90
8463;DHT22;4268;52.506;13.462;2023-04-02T05:18:38;4.20;99.90
8463;DHT22;4268;52.506;13.462;2023-04-02T05:23:47;4.20;99.90
8463;DHT22;4268;52.506;13.462;2023-04-02T05:26:28;4.10;99.90
8463;DHT22;4268;52.506;13.462;2023-04-02T05:31:53;4.40;99.90
8463;DHT22;4268;52.506;13.462;2023-04-02T05:34:24;4.40;99.90
8463;DHT22;4268;52.506;13.462;2023-04-02T05:36:51;5.40;99.90
8463;DHT22;4268;52.506;13.462;2023-04-02T05:39:21;4.40;99.90
8463;DHT22;4268;52.506;13.462;2023-04-02T05:41:47;4.00;99.90
8463;DHT22;4268;52.506;13.462;2023-04-02T05:44:29;4.50;99.90
8463;DHT22;4268;52.506;13.462;2023-04-02T05:47:00;4.50;99.90
8463;DHT22;4268;52.506;13.462;2023-04-02T05:49:54;4.50;99.90
8463;DHT22;4268;52.506;13.462;2023-04-02T05:52:32;4.50;99.90
8463;DHT22;4268;52.506;13.462;2023-04-02T05:58:23;4.60;99.90
8463;DHT22;4268;52.506;13.462;2023-04-02T06:00:53;4.60;99.90
8463;DHT22;4268;52.506;13.462;2023-04-02T06:03:45;4.60;99.90
8463;DHT22;4268;52.506;13.462;2023-04-02T06:06:28;4.70;99.90
8463;DHT22;4268;52.506;13.462;2023-04-02T06:09:00;4.70;99.90
8463;DHT22;4268;52.506;13.462;2023-04-02T06:11:31;4.30;99.90
8463;DHT22;4268;52.506;13.462;2023-04-02T06:13:57;4.60;99.90
8463;DHT22;4268;52.506;13.462;2023-04-02T06:16:26;4.40;99.90
8463;DHT22;4268;52.506;13.462;2023-04-02T06:18:52;4.60;99.90
8463;DHT22;4268;52.506;13.462;2023-04-02T06:21:20;4.90;99.90
8463;DHT22;4268;52.506;13.462;2023-04-02T06:23:55;5.00;99.90
8463;DHT22;4268;52.506;13.462;2023-04-02T06:26:32;5.10;99.90
8463;DHT22;4268;52.506;13.462;2023-04-02T06:29:13;5.10;99.90
8463;DHT22;4268;52.506;13.462;2023-04-02T06:31:50;5.20;99.90
8463;DHT22;4268;52.506;13.462;2023-04-02T06:34:19;5.30;99.90
8463;DHT22;4268;52.506;13.462;2023-04-02T06:36:46;5.40;99.90
8463;DHT22;4268;52.506;13.462;2023-04-02T06:39:21;5.50;99.90
8463;DHT22;4268;52.506;13.462;2023-04-02T06:42:11;5.60;99.90
8463;DHT22;4268;52.506;13.462;2023-04-02T06:44:40;5.50;99.90
8463;DHT22;4268;52.506;13.462;2023-04-02T06:47:34;5.90;99.90
8463;DHT22;4268;52.506;13.462;2023-04-02T06:50:12;6.20;99.90
8463;DHT22;4268;52.506;13.462;2023-04-02T06:52:55;6.70;99.90
8463;DHT22;4268;52.506;13.462;2023-04-02T06:55:35;7.30;99.90
8463;DHT22;4268;52.506;13.462;2023-04-02T06:58:05;8.30;99.90
8463;DHT22;4268;52.506;13.462;2023-04-02T07:00:42;8.50;99.90
8463;DHT22;4268;52.506;13.462;2023-04-02T07:03:29;8.70;99.80
8463;DHT22;4268;52.506;13.462;2023-04-02T07:05:56;8.90;97.90
8463;DHT22;4268;52.506;13.462;2023-04-02T07:08:22;9.30;97.70
8463;DHT22;4268;52.506;13.462;2023-04-02T07:10:48;9.20;97.80
8463;DHT22;4268;52.506;13.462;2023-04-02T07:13:19;8.60;97.30
8463;DHT22;4268;52.506;13.462;2023-04-02T07:15:48;9.20;96.90
8463;DHT22;4268;52.506;13.462;2023-04-02T07:20:51;10.70;94.00
8463;DHT22;4268;52.506;13.462;2023-04-02T07:23:16;11.90;92.50
8463;DHT22;4268;52.506;13.462;2023-04-02T07:25:42;12.50;90.40
8463;DHT22;4268;52.506;13.462;2023-04-02T07:28:08;13.60;85.80
8463;DHT22;4268;52.506;13.462;2023-04-02T07:30:36;11.40;81.30
8463;DHT22;4268;52.506;13.462;2023-04-02T07:33:01;12.90;84.20
8463;DHT22;4268;52.506;13.462;2023-04-02T07:35:27;12.90;85.10
8463;DHT22;4268;52.506;13.462;2023-04-02T07:37:54;10.40;83.90
8463;DHT22;4268;52.506;13.462;2023-04-02T07:40:20;10.30;84.50
8463;DHT22;4268;52.506;13.462;2023-04-02T07:42:47;9.80;89.40
8463;DHT22;4268;52.506;13.462;2023-04-02T07:45:13;10.00;87.90
8463;DHT22;4268;52.506;13.462;2023-04-02T07:47:39;10.90;86.30
8463;DHT22;4268;52.506;13.462;2023-04-02T07:50:07;11.30;83.80
8463;DHT22;4268;52.506;13.462;2023-04-02T07:52:37;10.50;85.00
8463;DHT22;4268;52.506;13.462;2023-04-02T07:55:03;10.00;85.30
8463;DHT22;4268;52.506;13.462;2023-04-02T07:57:29;8.70;87.80
8463;DHT22;4268;52.506;13.462;2023-04-02T07:59:54;8.20;89.70
8463;DHT22;4268;52.506;13.462;2023-04-02T08:02:21;7.60;90.60
8463;DHT22;4268;52.506;13.462;2023-04-02T08:04:48;7.20;91.60
8463;DHT22;4268;52.506;13.462;2023-04-02T08:07:13;6.80;92.70
8463;DHT22;4268;52.506;13.462;2023-04-02T08:09:39;6.60;93.50
8463;DHT22;4268;52.506;13.462;2023-04-02T08:12:05;6.60;94.20
8463;DHT22;4268;52.506;13.462;2023-04-02T08:14:30;6.70;94.80
8463;DHT22;4268;52.506;13.462;2023-04-02T08:16:56;6.80;95.20
8463;DHT22;4268;52.506;13.462;2023-04-02T08:19:21;6.80;95.30
8463;DHT22;4268;52.506;13.462;2023-04-02T08:21:48;7.00;95.40
8463;DHT22;4268;52.506;13.462;2023-04-02T08:24:19;7.10;95.50
8463;DHT22;4268;52.506;13.462;2023-04-02T08:26:45;7.20;95.40
8463;DHT22;4268;52.506;13.462;2023-04-02T08:29:11;7.30;94.20
8463;DHT22;4268;52.506;13.462;2023-04-02T08:31:37;7.10;94.00
8463;DHT22;4268;52.506;13.462;2023-04-02T08:34:02;6.90;94.00
8463;DHT22;4268;52.506;13.462;2023-04-02T08:36:31;7.10;94.60
8463;DHT22;4268;52.506;13.462;2023-04-02T08:38:57;7.30;94.20
8463;DHT22;4268;52.506;13.462;2023-04-02T08:41:24;7.40;94.40
8463;DHT22;4268;52.506;13.462;2023-04-02T08:44:14;7.40;94.50
8463;DHT22;4268;52.506;13.462;2023-04-02T08:47:02;7.40;94.10
8463;DHT22;4268;52.506;13.462;2023-04-02T08:49:33;7.30;94.30
8463;DHT22;4268;52.506;13.462;2023-04-02T08:52:00;7.30;94.20
8463;DHT22;4268;52.506;13.462;2023-04-02T08:54:29;7.40;93.90
8463;DHT22;4268;52.506;13.462;2023-04-02T08:57:10;7.50;93.90
8463;DHT22;4268;52.506;13.462;2023-04-02T08:59:41;7.40;93.50
8463;DHT22;4268;52.506;13.462;2023-04-02T09:04:36;7.50;93.90
8463;DHT22;4268;52.506;13.462;2023-04-02T09:07:02;7.50;93.80
8463;DHT22;4268;52.506;13.462;2023-04-02T09:09:32;7.40;93.60
8463;DHT22;4268;52.506;13.462;2023-04-02T09:12:00;7.30;93.40
8463;DHT22;4268;52.506;13.462;2023-04-02T09:14:41;7.20;93.30
8463;DHT22;4268;52.506;13.462;2023-04-02T09:17:21;7.00;93.00
8463;DHT22;4268;52.506;13.462;2023-04-02T09:19:58;7.20;93.60
8463;DHT22;4268;52.506;13.462;2023-04-02T09:22:30;7.30;93.50
8463;DHT22;4268;52.506;13.462;2023-04-02T09:24:59;7.40;92.50
8463;DHT22;4268;52.506;13.462;2023-04-02T09:27:29;7.00;92.50
8463;DHT22;4268;52.506;13.462;2023-04-02T09:32:49;6.70;92.90
8463;DHT22;4268;52.506;13.462;2023-04-02T09:35:19;6.80;93.40
8463;DHT22;4268;52.506;13.462;2023-04-02T09:37:46;6.90;93.60
8463;DHT22;4268;52.506;13.462;2023-04-02T09:43:21;7.10;92.60
8463;DHT22;4268;52.506;13.462;2023-04-02T09:46:03;7.20;91.80
8463;DHT22;4268;52.506;13.462;2023-04-02T09:48:35;7.10;91.90
8463;DHT22;4268;52.506;13.462;2023-04-02T09:51:21;7.10;91.60
8463;DHT22;4268;52.506;13.462;2023-04-02T09:54:05;7.10;91.60
8463;DHT22;4268;52.506;13.462;2023-04-02T09:56:36;7.20;92.00
8463;DHT22;4268;52.506;13.462;2023-04-02T10:01:36;7.80;91.90
8463;DHT22;4268;52.506;13.462;2023-04-02T10:04:04;8.00;91.70
8463;DHT22;4268;52.506;13.462;2023-04-02T10:06:32;8.00;91.20
8463;DHT22;4268;52.506;13.462;2023-04-02T10:09:18;7.90;91.10
8463;DHT22;4268;52.506;13.462;2023-04-02T10:11:44;7.80;91.70
8463;DHT22;4268;52.506;13.462;2023-04-02T10:14:27;7.90;91.60
8463;DHT22;4268;52.506;13.462;2023-04-02T10:17:04;8.00;91.50
8463;DHT22;4268;52.506;13.462;2023-04-02T10:19:40;8.30;91.40
8463;DHT22;4268;52.506;13.462;2023-04-02T10:22:27;8.40;90.90
8463;DHT22;4268;52.506;13.462;2023-04-02T10:24:52;8.60;90.80
8463;DHT22;4268;52.506;13.462;2023-04-02T10:27:44;8.70;90.90
8463;DHT22;4268;52.506;13.462;2023-04-02T10:30:17;8.90;90.90
8463;DHT22;4268;52.506;13.462;2023-04-02T10:33:02;8.90;91.40
8463;DHT22;4268;52.506;13.462;2023-04-02T10:38:14;8.90;90.80
8463;DHT22;4268;52.506;13.462;2023-04-02T10:40:48;8.90;91.00
8463;DHT22;4268;52.506;13.462;2023-04-02T10:43:38;8.90;90.20
8463;DHT22;4268;52.506;13.462;2023-04-02T10:46:17;8.70;90.10
8463;DHT22;4268;52.506;13.462;2023-04-02T10:49:15;8.70;90.40
8463;DHT22;4268;52.506;13.462;2023-04-02T10:51:59;8.60;90.60
8463;DHT22;4268;52.506;13.462;2023-04-02T10:57:22;8.60;90.70
8463;DHT22;4268;52.506;13.462;2023-04-02T11:00:12;8.60;91.30
8463;DHT22;4268;52.506;13.462;2023-04-02T11:05:24;8.90;90.60
8463;DHT22;4268;52.506;13.462;2023-04-02T11:08:04;8.90;90.40
8463;DHT22;4268;52.506;13.462;2023-04-02T11:10:35;9.00;90.70
8463;DHT22;4268;52.506;13.462;2023-04-02T11:13:10;9.00;90.40
8463;DHT22;4268;52.506;13.462;2023-04-02T11:15:37;8.90;89.90
8463;DHT22;4268;52.506;13.462;2023-04-02T11:18:03;8.80;90.00
8463;DHT22;4268;52.506;13.462;2023-04-02T11:23:17;8.80;90.50
8463;DHT22;4268;52.506;13.462;2023-04-02T11:25:43;8.90;90.40
8463;DHT22;4268;52.506;13.462;2023-04-02T11:28:29;8.90;90.20
8463;DHT22;4268;52.506;13.462;2023-04-02T11:30:56;8.70;90.10
8463;DHT22;4268;52.506;13.462;2023-04-02T11:33:31;8.70;90.30
8463;DHT22;4268;52.506;13.462;2023-04-02T11:36:03;8.60;90.40
8463;DHT22;4268;52.506;13.462;2023-04-02T11:38:51;8.70;90.50
8463;DHT22;4268;52.506;13.462;2023-04-02T11:44:24;8.50;90.70
8463;DHT22;4268;52.506;13.462;2023-04-02T11:46:49;8.20;90.70
8463;DHT22;4268;52.506;13.462;2023-04-02T11:49:35;8.20;90.90
8463;DHT22;4268;52.506;13.462;2023-04-02T11:52:02;8.30;90.60
8463;DHT22;4268;52.506;13.462;2023-04-02T11:54:31;8.20;90.40
8463;DHT22;4268;52.506;13.462;2023-04-02T11:57:27;8.20;90.10
8463;DHT22;4268;52.506;13.462;2023-04-02T12:03:08;8.40;90.20
8463;DHT22;4268;52.506;13.462;2023-04-02T12:05:41;8.50;90.20
8463;DHT22;4268;52.506;13.462;2023-04-02T12:08:16;8.50;90.30
8463;DHT22;4268;52.506;13.462;2023-04-02T12:11:00;8.60;90.50
8463;DHT22;4268;52.506;13.462;2023-04-02T12:16:06;9.00;90.40
8463;DHT22;4268;52.506;13.462;2023-04-02T12:18:32;9.00;90.20
8463;DHT22;4268;52.506;13.462;2023-04-02T12:20:58;9.10;90.20
8463;DHT22;4268;52.506;13.462;2023-04-02T12:23:29;9.20;90.30
8463;DHT22;4268;52.506;13.462;2023-04-02T12:26:07;9.30;90.00
8463;DHT22;4268;52.506;13.462;2023-04-02T12:28:48;9.30;89.30
8463;DHT22;4268;52.506;13.462;2023-04-02T12:31:15;9.40;89.20
8463;DHT22;4268;52.506;13.462;2023-04-02T12:33:42;9.40;88.80
8463;DHT22;4268;52.506;13.462;2023-04-02T12:41:29;9.50;88.10
8463;DHT22;4268;52.506;13.462;2023-04-02T12:44:02;9.80;86.10
8463;DHT22;4268;52.506;13.462;2023-04-02T12:46:30;9.90;85.70
8463;DHT22;4268;52.506;13.462;2023-04-02T12:49:05;10.00;84.50
8463;DHT22;4268;52.506;13.462;2023-04-02T12:51:32;10.10;84.80
8463;DHT22;4268;52.506;13.462;2023-04-02T12:53:58;10.20;84.70
8463;DHT22;4268;52.506;13.462;2023-04-02T12:56:23;10.10;84.40
8463;DHT22;4268;52.506;13.462;2023-04-02T12:58:57;10.10;84.30
8463;DHT22;4268;52.506;13.462;2023-04-02T13:01:25;9.90;85.10
8463;DHT22;4268;52.506;13.462;2023-04-02T13:04:09;9.70;84.70
8463;DHT22;4268;52.506;13.462;2023-04-02T13:06:40;9.60;85.10
8463;DHT22;4268;52.506;13.462;2023-04-02T13:09:27;9.90;85.30
8463;DHT22;4268;52.506;13.462;2023-04-02T13:11:54;10.10;81.90
8463;DHT22;4268;52.506;13.462;2023-04-02T13:14:20;10.20;81.30
8463;DHT22;4268;52.506;13.462;2023-04-02T13:16:48;10.20;80.80
8463;DHT22;4268;52.506;13.462;2023-04-02T13:21:43;9.60;79.80
8463;DHT22;4268;52.506;13.462;2023-04-02T13:24:20;9.30;81.80
8463;DHT22;4268;52.506;13.462;2023-04-02T13:26:46;9.40;83.40
8463;DHT22;4268;52.506;13.462;2023-04-02T13:29:19;9.80;83.40
8463;DHT22;4268;52.506;13.462;2023-04-02T13:31:46;10.10;82.10
8463;DHT22;4268;52.506;13.462;2023-04-02T13:34:12;10.20;81.20
8463;DHT22;4268;52.506;13.462;2023-04-02T13:36:37;10.20;80.90
8463;DHT22;4268;52.506;13.462;2023-04-02T13:39:03;10.20;80.80
8463;DHT22;4268;52.506;13.462;2023-04-02T13:41:32;10.10;81.10
8463;DHT22;4268;52.506;13.462;2023-04-02T13:44:00;10.10;82.00
8463;DHT22;4268;52.506;13.462;2023-04-02T13:46:30;10.10;82.80
8463;DHT22;4268;52.506;13.462;2023-04-02T13:48:56;10.10;83.60
8463;DHT22;4268;52.506;13.462;2023-04-02T13:51:34;10.10;83.30
8463;DHT22;4268;52.506;13.462;2023-04-02T13:54:01;10.10;82.70
8463;DHT22;4268;52.506;13.462;2023-04-02T13:56:28;10.10;82.50
8463;DHT22;4268;52.506;13.462;2023-04-02T13:58:54;10.10;83.10
8463;DHT22;4268;52.506;13.462;2023-04-02T14:01:21;10.10;82.10
8463;DHT22;4268;52.506;13.462;2023-04-02T14:03:47;9.80;83.70
8463;DHT22;4268;52.506;13.462;2023-04-02T14:06:25;9.90;83.30
8463;DHT22;4268;52.506;13.462;2023-04-02T14:12:07;9.70;83.70
8463;DHT22;4268;52.506;13.462;2023-04-02T14:22:44;9.70;83.50
8463;DHT22;4268;52.506;13.462;2023-04-02T14:25:39;9.50;83.70
8463;DHT22;4268;52.506;13.462;2023-04-02T14:34:13;9.90;82.90
8463;DHT22;4268;52.506;13.462;2023-04-02T14:37:08;10.20;81.20
8463;DHT22;4268;52.506;13.462;2023-04-02T14:39:53;10.00;80.50
8463;DHT22;4268;52.506;13.462;2023-04-02T14:45:38;9.60;83.20
8463;DHT22;4268;52.506;13.462;2023-04-02T14:48:47;9.50;84.10
8463;DHT22;4268;52.506;13.462;2023-04-02T14:51:26;9.70;84.50
8463;DHT22;4268;52.506;13.462;2023-04-02T14:56:35;9.70;84.00
8463;DHT22;4268;52.506;13.462;2023-04-02T14:59:24;9.70;83.60
8463;DHT22;4268;52.506;13.462;2023-04-02T15:01:57;9.50;84.50
8463;DHT22;4268;52.506;13.462;2023-04-02T15:04:39;9.40;83.80
8463;DHT22;4268;52.506;13.462;2023-04-02T15:07:18;9.20;84.50
8463;DHT22;4268;52.506;13.462;2023-04-02T15:09:50;9.10;84.30
8463;DHT22;4268;52.506;13.462;2023-04-02T15:12:29;9.10;84.60
8463;DHT22;4268;52.506;13.462;2023-04-02T15:17:32;9.20;85.60
8463;DHT22;4268;52.506;13.462;2023-04-02T15:20:11;9.00;85.40
8463;DHT22;4268;52.506;13.462;2023-04-02T15:23:00;9.00;85.60
8463;DHT22;4268;52.506;13.462;2023-04-02T15:25:36;8.60;85.30
8463;DHT22;4268;52.506;13.462;2023-04-02T15:28:34;8.80;87.20
8463;DHT22;4268;52.506;13.462;2023-04-02T15:31:11;8.90;86.30
8463;DHT22;4268;52.506;13.462;2023-04-02T15:33:44;9.00;86.00
8463;DHT22;4268;52.506;13.462;2023-04-02T15:36:44;8.80;85.30
8463;DHT22;4268;52.506;13.462;2023-04-02T15:47:35;9.00;86.60
8463;DHT22;4268;52.506;13.462;2023-04-02T15:52:53;8.80;83.80
8463;DHT22;4268;52.506;13.462;2023-04-02T15:55:38;8.70;84.10
8463;DHT22;4268;52.506;13.462;2023-04-02T16:07:00;8.50;85.10
8463;DHT22;4268;52.506;13.462;2023-04-02T16:12:24;8.60;83.90
8463;DHT22;4268;52.506;13.462;2023-04-02T16:14:56;8.40;83.80
8463;DHT22;4268;52.506;13.462;2023-04-02T16:17:33;8.20;84.50
8463;DHT22;4268;52.506;13.462;2023-04-02T16:22:42;7.90;85.70
8463;DHT22;4268;52.506;13.462;2023-04-02T16:25:17;7.90;86.20
8463;DHT22;4268;52.506;13.462;2023-04-02T16:31:07;8.00;86.30
8463;DHT22;4268;52.506;13.462;2023-04-02T16:36:19;7.90;86.00
8463;DHT22;4268;52.506;13.462;2023-04-02T16:57:10;7.40;88.50
8463;DHT22;4268;52.506;13.462;2023-04-02T17:07:55;7.10;89.70
8463;DHT22;4268;52.506;13.462;2023-04-02T17:10:29;7.10;89.70
8463;DHT22;4268;52.506;13.462;2023-04-02T17:13:02;7.00;89.30
8463;DHT22;4268;52.506;13.462;2023-04-02T17:15:37;7.00;89.30
8463;DHT22;4268;52.506;13.462;2023-04-02T17:18:20;7.00;89.50
8463;DHT22;4268;52.506;13.462;2023-04-02T17:20:49;6.90;89.90
8463;DHT22;4268;52.506;13.462;2023-04-02T17:23:16;6.80;90.00
8463;DHT22;4268;52.506;13.462;2023-04-02T17:25:53;6.80;90.20
8463;DHT22;4268;52.506;13.462;2023-04-02T17:28:24;6.70;90.60
8463;DHT22;4268;52.506;13.462;2023-04-02T17:30:55;6.60;90.70
8463;DHT22;4268;52.506;13.462;2023-04-02T17:33:22;6.60;91.10
8463;DHT22;4268;52.506;13.462;2023-04-02T17:39:35;6.50;91.30
8463;DHT22;4268;52.506;13.462;2023-04-02T17:42:04;6.40;91.30
8463;DHT22;4268;52.506;13.462;2023-04-02T17:47:30;6.30;91.60
8463;DHT22;4268;52.506;13.462;2023-04-02T17:50:08;6.20;91.80
8463;DHT22;4268;52.506;13.462;2023-04-02T17:58:52;6.10;92.40
8463;DHT22;4268;52.506;13.462;2023-04-02T18:01:33;6.00;92.50
8463;DHT22;4268;52.506;13.462;2023-04-02T18:06:31;5.90;92.70
8463;DHT22;4268;52.506;13.462;2023-04-02T18:12:25;5.90;93.20
8463;DHT22;4268;52.506;13.462;2023-04-02T18:18:29;5.70;93.40
8463;DHT22;4268;52.506;13.462;2023-04-02T18:35:05;5.40;94.40
8463;DHT22;4268;52.506;13.462;2023-04-02T18:37:59;5.40;94.50
8463;DHT22;4268;52.506;13.462;2023-04-02T18:43:50;5.30;94.80
8463;DHT22;4268;52.506;13.462;2023-04-02T18:46:21;5.30;95.10
8463;DHT22;4268;52.506;13.462;2023-04-02T18:49:18;5.20;95.10
8463;DHT22;4268;52.506;13.462;2023-04-02T18:51:47;5.10;95.10
8463;DHT22;4268;52.506;13.462;2023-04-02T18:56:48;5.10;95.50
8463;DHT22;4268;52.506;13.462;2023-04-02T18:59:27;5.10;95.60
8463;DHT22;4268;52.506;13.462;2023-04-02T19:01:57;5.00;95.70
8463;DHT22;4268;52.506;13.462;2023-04-02T19:04:31;5.00;95.80
8463;DHT22;4268;52.506;13.462;2023-04-02T19:09:30;4.80;96.00
8463;DHT22;4268;52.506;13.462;2023-04-02T19:11:56;4.80;96.40
8463;DHT22;4268;52.506;13.462;2023-04-02T19:14:22;4.80;96.40
8463;DHT22;4268;52.506;13.462;2023-04-02T19:17:16;4.80;96.60
8463;DHT22;4268;52.506;13.462;2023-04-02T19:22:31;4.70;96.80
8463;DHT22;4268;52.506;13.462;2023-04-02T19:33:28;4.50;97.10
8463;DHT22;4268;52.506;13.462;2023-04-02T19:41:51;4.40;97.60
8463;DHT22;4268;52.506;13.462;2023-04-02T19:44:17;4.40;97.70
8463;DHT22;4268;52.506;13.462;2023-04-02T19:46:43;4.40;97.60
8463;DHT22;4268;52.506;13.462;2023-04-02T19:49:31;4.30;97.60
8463;DHT22;4268;52.506;13.462;2023-04-02T19:51:58;4.20;97.70
8463;DHT22;4268;52.506;13.462;2023-04-02T19:54:23;4.20;97.80
8463;DHT22;4268;52.506;13.462;2023-04-02T19:56:49;4.20;97.80
8463;DHT22;4268;52.506;13.462;2023-04-02T19:59:15;4.20;97.70
8463;DHT22;4268;52.506;13.462;2023-04-02T20:01:40;4.20;97.70
8463;DHT22;4268;52.506;13.462;2023-04-02T20:04:06;4.10;97.70
8463;DHT22;4268;52.506;13.462;2023-04-02T20:06:32;4.10;97.70
8463;DHT22;4268;52.506;13.462;2023-04-02T20:08:57;4.00;97.90
8463;DHT22;4268;52.506;13.462;2023-04-02T20:11:24;4.00;98.00
8463;DHT22;4268;52.506;13.462;2023-04-02T20:13:51;4.00;97.90
8463;DHT22;4268;52.506;13.462;2023-04-02T20:16:17;3.90;98.00
8463;DHT22;4268;52.506;13.462;2023-04-02T20:18:42;3.90;98.10
8463;DHT22;4268;52.506;13.462;2023-04-02T20:21:08;3.90;98.20
8463;DHT22;4268;52.506;13.462;2023-04-02T20:23:35;3.90;98.10
8463;DHT22;4268;52.506;13.462;2023-04-02T20:26:01;3.80;98.00
8463;DHT22;4268;52.506;13.462;2023-04-02T20:28:27;3.80;97.90
8463;DHT22;4268;52.506;13.462;2023-04-02T20:30:53;3.80;98.00
8463;DHT22;4268;52.506;13.462;2023-04-02T20:33:21;3.80;98.20
8463;DHT22;4268;52.506;13.462;2023-04-02T20:35:48;3.70;98.20
8463;DHT22;4268;52.506;13.462;2023-04-02T20:38:15;3.70;98.20
8463;DHT22;4268;52.506;13.462;2023-04-02T20:40:41;3.70;98.00
8463;DHT22;4268;52.506;13.462;2023-04-02T20:43:08;3.60;98.00
8463;DHT22;4268;52.506;13.462;2023-04-02T20:45:34;3.60;98.10